CDT,Max TemperatureF,Mean TemperatureF,Min TemperatureF,Max Dew PointF,MeanDew PointF,Min DewpointF,Max Humidity, Mean Humidity, Min Humidity, Max Sea Level PressureIn, Mean Sea Level PressureIn, Min Sea Level PressureIn, Max VisibilityMiles, Mean VisibilityMiles, Min VisibilityMiles, Max Wind SpeedMPH, Mean Wind SpeedMPH, Max Gust SpeedMPH,PrecipitationIn, CloudCover, Events, WindDirDegrees
2011-10-1,84,65,48,40,37,34,66,41,18,30.13,30.07,30.00,,,,23,14,30,0.00,,,178
2011-10-2,89,68,48,41,39,37,74,38,16,30.04,29.98,29.91,,,,25,12,30,0.00,,,183
2011-10-3,88,70,53,46,42,40,64,40,21,30.01,29.98,29.94,,,,22,12,26,0.00,,,179
2011-10-4,95,74,52,49,44,33,77,41,11,29.96,29.87,29.77,,,,26,12,34,0.00,,,168
2011-10-5,87,77,68,44,40,33,38,28,16,29.83,29.78,29.72,,,,32,23,45,0.00,,,191
2011-10-6,79,70,64,54,48,43,52,44,37,29.72,29.62,29.48,,,,37,26,47,0.00,,,177
2011-10-7,77,66,53,60,42,20,96,53,12,29.82,29.68,29.60,,,,37,18,50,0.59,,,226
2011-10-8,57,55,53,54,48,36,90,77,47,30.11,30.02,29.85,,,,16,5,,0.06,,,35
2011-10-9,62,58,53,60,54,49,100,95,77,30.14,30.05,29.96,,,,29,9,75,1.60,,,20
2011-10-10,72,61,50,52,47,41,97,72,34,29.97,29.87,29.77,,,,21,9,24,0.00,,,227
2011-10-11,75,62,48,56,50,44,90,70,34,29.79,29.71,29.65,,,,20,9,23,0.00,,,198
2011-10-12,68,58,48,54,45,37,100,69,34,29.87,29.78,29.65,,,,22,10,31,0.00,,,324
2011-10-13,66,55,44,38,33,26,71,49,23,29.90,29.87,29.81,,,,26,10,40,0.00,,,322
2011-10-14,60,48,37,36,32,28,86,55,33,30.04,30.00,29.91,,,,28,11,39,0.00,,,320
2011-10-15,68,52,37,38,34,30,86,56,28,30.03,29.92,29.77,,,,14,7,18,0.00,,,130
2011-10-16,57,48,36,40,32,24,86,57,28,30.13,30.06,29.96,,,,20,11,28,0.00,,,338
2011-10-17,57,47,39,36,29,23,79,53,29,30.12,30.07,30.02,,,,17,6,26,0.00,,,335
2011-10-18,57,46,36,31,29,27,82,57,34,30.26,30.19,30.11,,,,17,10,24,0.00,,,360
2011-10-19,48,37,28,32,25,21,89,64,36,30.27,30.21,30.17,,,,12,6,18,0.00,,,45
2011-10-20,54,38,23,31,27,20,96,70,35,30.17,30.09,30.01,,,,9,4,,0.00,,,173
2011-10-21,71,52,35,48,37,30,92,64,32,30.13,30.05,29.99,,,,15,6,20,0.01,,,334
2011-10-22,66,54,43,48,45,41,97,77,48,30.13,30.06,29.96,,,,12,4,,0.00,,,247
2011-10-23,70,58,45,43,39,33,80,57,26,30.01,29.93,29.90,,,,21,7,33,0.00,,,306
2011-10-24,66,52,41,41,35,31,82,53,29,30.06,29.94,29.78,,,,17,7,24,0.00,,,99
2011-10-25,57,49,43,40,38,35,89,69,49,30.14,29.97,29.77,,,,20,13,28,0.00,,,26
2011-10-26,50,40,33,36,32,27,78,67,46,30.26,30.20,30.17,,,,17,11,26,0.00,,,340
2011-10-27,55,41,27,30,24,18,92,59,25,30.17,30.11,30.03,,,,12,7,,0.00,,,271
2011-10-28,57,41,27,28,24,17,89,57,23,30.26,30.18,30.10,,,,16,9,23,0.00,,,310
2011-10-29,53,42,32,35,28,23,73,58,41,30.09,29.91,29.78,,,,17,8,26,0.00,,,165
2011-10-30,55,45,33,35,27,20,77,54,26,30.09,30.03,29.96,,,,22,14,30,0.00,,,324
2011-10-31,72,50,30,35,30,24,79,57,24,30.06,29.90,29.77,,,,10,5,,0.00,,,180